• Join FlightAware (Why Join?)
  • Login
  • US Flag 
Trick or treat! (Boo!!) 
11:15AM EDT


 

Airport Tracker/Info


-or-


 

Live Flight TrackerFlight Track Log ✈ UPS1131 ✈ 23-Aug-2013 ✈ KROA - KSDF

Flight Track Log - Related Links

Times and Time Zones

All times are in EDT time to prevent confusion due to time zone crossing. See the UPS1131 flight status page for this flight to view local times or setup timezone preferences in your user account.

Time Position Orientation Groundspeed Altitude Reporting Facility
EDT Latitude Longitude Course Direction KTS MPH feet Rate Location/Type
12:28AM 37.2553 -80.1244 250° West 270 311 6,600  Level Washington Center
12:29AM 37.2917 -80.2075 299° West 265 305 10,300 3,240 Climbing Washington Center
12:31AM 37.3989 -80.4222 302° West 359 413 16,500 2,940 Climbing Indianapolis Center
12:32AM 37.4492 -80.5317 300° West 366 421 19,400 2,820 Climbing Indianapolis Center
12:33AM 37.4275 -80.5727 282° West  Level Estimated
12:33AM 37.4681 -80.6619 280° West 397 457 22,200  Level Indianapolis Center
12:34AM 37.4519 -80.8019 262° West 415 478 24,800 2,520 Climbing Indianapolis Center
12:35AM 37.4522 -80.9478 270° West 433 498 27,300 2,520 Climbing Indianapolis Center
12:36AM 37.4625 -81.0900 275° West 423 487 29,900 1,320 Climbing Indianapolis Center
12:37AM 37.4731 -81.2581 275° West 415 478 30,000  Climbing Indianapolis Center
12:38AM 37.4811 -81.3994 274° West 415 478 30,000  Level Indianapolis Center
12:39AM 37.4911 -81.5444 275° West 417 480 30,000  Level Indianapolis Center
12:40AM 37.5011 -81.6892 275° West 416 479 30,000  Level Indianapolis Center
12:41AM 37.5097 -81.8339 274° West 415 478 30,000  Level Indianapolis Center
12:42AM 37.5178 -81.9792 274° West 416 479 30,000  Level Indianapolis Center
12:43AM 37.5272 -82.1247 275° West 417 480 30,000  Level Indianapolis Center
12:44AM 37.5353 -82.2694 274° West 416 479 30,000  Level Indianapolis Center
12:45AM 37.5436 -82.4150 274° West 417 480 30,000  Level Indianapolis Center
12:46AM 37.5508 -82.5586 274° West 414 476 30,000  Level Indianapolis Center
12:47AM 37.5586 -82.7033 274° West 414 476 30,000  Level Indianapolis Center
12:48AM 37.5667 -82.8483 274° West 416 479 30,000  Level Indianapolis Center
12:49AM 37.5733 -82.9944 273° West 418 481 30,000  Level Indianapolis Center
12:50AM 37.5814 -83.1389 274° West 417 480 30,000  Level Indianapolis Center
12:51AM 37.5869 -83.2831 273° West 414 476 30,000  Level Indianapolis Center
12:52AM 37.5944 -83.4272 274° West 413 475 30,000  Level Indianapolis Center
12:53AM 37.6006 -83.5717 273° West 413 475 30,000 -360 Level Indianapolis Center
12:54AM 37.6072 -83.7169 273° West 414 476 29,300 -1,920 Descending Indianapolis Center
12:55AM 37.6122 -83.8614 273° West 414 476 26,200 -3,120 Descending Indianapolis Center
12:56AM 37.6194 -84.0347 273° West 423 487 23,100 -2,820 Descending Indianapolis Center
12:57AM 37.6244 -84.1772 273° West 412 474 20,600 -2,400 Descending Indianapolis Center
12:58AM 37.6300 -84.3167 273° West 402 463 18,300 -2,340 Descending Indianapolis Center
12:59AM 37.6350 -84.4517 273° West 388 447 16,000 -2,340 Descending Indianapolis Center
01:00AM 37.6411 -84.5844 273° West 382 440 13,700 -2,100 Descending Indianapolis Center
01:01AM 37.6453 -84.7133 272° West 370 426 11,800 -1,500 Descending Indianapolis Center
01:02AM 37.6506 -84.8389 273° West 362 417 10,800 -900 Descending Indianapolis Center
01:03AM 37.6581 -84.9617 274° West 353 406 10,000 -420 Descending Indianapolis Center
01:04AM 37.7200 -85.0431 314° West 315 362 10,000 -180 Level Indianapolis Center
01:05AM 37.7708 -85.1178 311° West 285 328 9,700 -900 Descending Indianapolis Center
01:06AM 37.7947 -85.2122 288° West 282 325 8,200 -1,560 Descending Indianapolis Center
01:07AM 37.8186 -85.3050 288° West 281 323 6,600 -1,560 Descending Indianapolis Center
01:08AM 37.8411 -85.3958 287° West 281 323 5,100 -1,320 Descending Indianapolis Center
01:09AM 37.8681 -85.4869 291° West 278 320 4,000 -600 Descending Indianapolis Center
01:10AM 37.9047 -85.5725 299° West 276 318 4,000  Level Indianapolis Center
01:11AM 37.9406 -85.6594 298° West 278 320 4,000 -300 Level Indianapolis Center
01:12AM 38.0031 -85.6872 341° North 245 282 3,500 -720 Descending Indianapolis Center
01:13AM 38.0569 -85.7058 345° North 221 254 2,600 -900 Descending Indianapolis Center
01:14AM 38.0967 -85.7175 347° North 189 217 1,800 -600 Descending Indianapolis Center
01:15AM 38.1256 -85.7261 347° North 164 189 1,400 -420 Descending Indianapolis Center
01:17AM 38.1741 -85.7365 345° North  Level Estimated
01:24AM 38.1741 -85.7365 208° Southwest  Level Estimated
01:25AM 38.1741 -85.7365 208° Southwest  Level Estimated